createdAt,value
2022-12-08T00:00:33.694Z,60.18
2022-12-08T00:05:59.130Z,60.25
2022-12-08T00:11:07.289Z,60.26
2022-12-08T00:16:15.649Z,60.10
2022-12-08T00:21:22.932Z,59.76
2022-12-08T00:26:30.704Z,58.06
2022-12-08T00:31:38.964Z,57.60
2022-12-08T00:36:47.329Z,57.92
2022-12-08T00:42:13.657Z,58.77
2022-12-08T00:47:24.802Z,59.72
2022-12-08T00:52:33.499Z,64.08
2022-12-08T00:57:41.979Z,65.64
2022-12-08T01:02:50.229Z,64.82
2022-12-08T01:07:58.224Z,64.19
2022-12-08T01:13:05.375Z,63.39
2022-12-08T01:18:13.328Z,62.24
2022-12-08T01:23:21.313Z,61.79
2022-12-08T01:28:29.271Z,61.06
2022-12-08T01:33:36.535Z,60.50
2022-12-08T01:38:44.465Z,60.09
2022-12-08T01:44:02.963Z,59.65
2022-12-08T01:49:15.028Z,57.42
2022-12-08T01:54:25.300Z,57.34
2022-12-08T01:59:35.530Z,58.14
2022-12-08T02:04:43.650Z,58.97
2022-12-08T02:09:52.957Z,59.82
2022-12-08T02:15:04.983Z,63.53
2022-12-08T02:20:37.435Z,64.70
2022-12-08T02:26:09.603Z,64.68
2022-12-08T02:31:30.597Z,64.38
2022-12-08T02:36:46.006Z,64.12
2022-12-08T02:42:04.046Z,63.79
2022-12-08T02:47:15.937Z,63.24
2022-12-08T02:52:47.033Z,63.29
2022-12-08T02:58:29.989Z,63.19
2022-12-08T03:03:48.980Z,63.30
2022-12-08T03:09:01.820Z,63.17
2022-12-08T03:14:13.313Z,62.96
2022-12-08T03:19:25.105Z,62.63
2022-12-08T03:24:36.110Z,62.45
2022-12-08T03:29:44.482Z,62.31
2022-12-08T03:34:55.105Z,62.28
2022-12-08T03:40:03.536Z,62.31
2022-12-08T03:45:12.891Z,62.37
2022-12-08T03:50:21.121Z,62.35
2022-12-08T03:55:29.129Z,62.43
2022-12-08T04:00:37.231Z,62.36
2022-12-08T04:05:45.547Z,62.35
2022-12-08T04:10:53.509Z,62.42
2022-12-08T04:16:00.681Z,62.52
2022-12-08T04:21:09.431Z,62.65
2022-12-08T04:26:18.585Z,62.61
2022-12-08T04:31:26.769Z,62.50
2022-12-08T04:36:34.805Z,62.27
2022-12-08T04:41:42.866Z,62.13
2022-12-08T04:46:50.933Z,62.13
2022-12-08T04:51:59.504Z,62.19
2022-12-08T04:57:07.638Z,62.18
2022-12-08T05:02:15.813Z,62.11
2022-12-08T05:07:24.269Z,62.25
2022-12-08T05:12:32.237Z,62.57
2022-12-08T05:17:40.270Z,62.90
2022-12-08T05:22:48.261Z,63.16
2022-12-08T05:28:17.586Z,63.35
2022-12-08T05:33:24.910Z,63.50
2022-12-08T05:38:32.967Z,63.70
2022-12-08T05:43:41.080Z,63.82
2022-12-08T05:48:48.754Z,63.99
2022-12-08T05:53:57.953Z,64.11
2022-12-08T05:59:09.039Z,64.13
2022-12-08T06:04:17.102Z,64.22
2022-12-08T06:09:25.567Z,64.25
2022-12-08T06:14:34.217Z,64.24
2022-12-08T06:19:42.278Z,64.16
2022-12-08T06:24:50.351Z,64.17
2022-12-08T06:29:58.524Z,64.17
2022-12-08T06:35:07.259Z,64.15
2022-12-08T06:40:17.185Z,64.25
2022-12-08T06:45:25.446Z,64.32
2022-12-08T06:50:35.442Z,64.39
2022-12-08T06:56:02.049Z,64.34
2022-12-08T07:01:12.710Z,64.32
2022-12-08T07:06:24.179Z,64.30
2022-12-08T07:11:32.663Z,64.41
2022-12-08T07:16:40.857Z,64.36
2022-12-08T07:21:48.897Z,64.33
2022-12-08T07:26:56.967Z,64.27
2022-12-08T07:32:05.025Z,64.09
2022-12-08T07:37:13.136Z,64.10
2022-12-08T07:42:20.345Z,63.82
2022-12-08T07:47:28.412Z,63.66
2022-12-08T07:52:37.535Z,63.25
2022-12-08T07:57:45.513Z,63.06
2022-12-08T08:02:53.644Z,62.92
2022-12-08T08:08:01.908Z,62.50
2022-12-08T08:13:10.295Z,62.31
2022-12-08T08:18:18.831Z,62.29
2022-12-08T08:23:26.857Z,62.40
2022-12-08T08:28:35.640Z,62.49
2022-12-08T08:33:43.707Z,62.50
2022-12-08T08:38:51.977Z,62.22
2022-12-08T08:44:00.110Z,61.91
2022-12-08T08:49:07.335Z,61.42
2022-12-08T08:54:15.568Z,60.61
2022-12-08T08:59:23.689Z,59.76
2022-12-08T09:04:32.204Z,58.00
2022-12-08T09:09:41.658Z,57.56
2022-12-08T09:14:49.971Z,58.25
2022-12-08T09:19:58.665Z,59.09
2022-12-08T09:25:07.472Z,59.75
2022-12-08T09:30:15.719Z,60.32
2022-12-08T09:35:23.832Z,60.82
2022-12-08T09:40:35.232Z,63.22
2022-12-08T09:45:43.613Z,63.69
2022-12-08T09:50:56.479Z,63.14
2022-12-08T09:56:08.657Z,62.82
2022-12-08T10:01:18.450Z,61.68
2022-12-08T10:06:33.548Z,60.65
2022-12-08T10:11:54.516Z,59.58
2022-12-08T10:17:08.282Z,57.51
2022-12-08T10:22:25.251Z,57.31
2022-12-08T10:27:36.664Z,58.07
2022-12-08T10:32:48.621Z,58.61
2022-12-08T10:38:06.875Z,59.07
2022-12-08T10:43:20.164Z,59.34
2022-12-08T10:48:31.662Z,59.93
2022-12-08T10:53:48.896Z,60.42
2022-12-08T10:59:15.181Z,60.81
2022-12-08T11:04:26.225Z,61.36
2022-12-08T11:09:47.161Z,64.05
2022-12-08T11:15:02.777Z,65.15
2022-12-08T11:20:24.897Z,64.33
2022-12-08T11:25:32.989Z,63.31
2022-12-08T11:30:45.652Z,62.58
2022-12-08T11:35:57.442Z,62.23
2022-12-08T11:41:15.726Z,61.92
2022-12-08T11:46:29.961Z,61.74
2022-12-08T11:51:41.343Z,61.30
2022-12-08T11:56:53.331Z,60.67
2022-12-08T12:02:01.633Z,60.23
2022-12-08T12:07:46.156Z,59.98
2022-12-08T12:13:07.037Z,59.87
2022-12-08T12:18:21.010Z,59.73
2022-12-08T12:23:38.818Z,58.01
2022-12-08T12:28:52.734Z,57.64
2022-12-08T12:34:10.578Z,58.37
2022-12-08T12:39:20.664Z,59.07
2022-12-08T12:44:41.019Z,59.89
2022-12-08T12:50:11.153Z,60.56
2022-12-08T12:55:53.755Z,63.80
2022-12-08T13:01:31.689Z,65.24
2022-12-08T13:06:43.709Z,63.95
2022-12-08T13:11:57.175Z,63.29
2022-12-08T13:17:07.176Z,62.96
2022-12-08T13:22:49.073Z,62.50
2022-12-08T13:28:10.979Z,62.08
2022-12-08T13:33:24.697Z,61.75
2022-12-08T13:38:37.491Z,61.55
2022-12-08T13:44:20.584Z,61.47
2022-12-08T13:56:05.386Z,61.49
2022-12-08T14:00:28.031Z,61.53
2022-12-08T14:11:34.462Z,61.75
2022-12-08T14:16:44.201Z,61.86
2022-12-08T14:21:56.169Z,62.05
2022-12-08T14:27:07.246Z,62.22
2022-12-08T14:32:31.953Z,62.43
2022-12-08T14:37:44.064Z,62.62
2022-12-08T14:42:55.839Z,62.89
2022-12-08T14:48:22.608Z,63.12
2022-12-08T14:53:40.004Z,63.31
2022-12-08T14:58:49.360Z,63.53
2022-12-08T15:04:05.286Z,63.76
2022-12-08T15:09:33.089Z,64.01
2022-12-08T15:14:42.868Z,64.17
2022-12-08T15:20:00.828Z,64.41
2022-12-08T15:25:14.221Z,64.68
2022-12-08T15:30:22.622Z,64.87
2022-12-08T15:35:34.672Z,65.06
2022-12-08T15:40:46.114Z,65.32
2022-12-08T15:45:59.389Z,65.52
2022-12-08T15:51:08.207Z,65.74
2022-12-08T15:56:27.289Z,65.89
2022-12-08T16:01:36.201Z,66.14
2022-12-08T16:13:26.935Z,66.26
2022-12-08T16:18:05.595Z,66.27
2022-12-08T16:23:34.603Z,66.29
2022-12-08T16:28:54.136Z,66.38
2022-12-08T16:34:03.940Z,66.59
2022-12-08T16:39:14.573Z,66.70
2022-12-08T16:44:23.617Z,66.84
2022-12-08T16:49:30.687Z,67.04
2022-12-08T16:54:39.561Z,66.95
2022-12-08T16:59:48.139Z,67.01
2022-12-08T17:04:56.945Z,67.02
2022-12-08T17:10:07.141Z,67.06
2022-12-08T17:15:20.904Z,67.10
2022-12-08T17:20:30.642Z,67.23
2022-12-08T17:25:38.219Z,67.29
2022-12-08T17:30:47.221Z,67.35
2022-12-08T17:35:57.177Z,67.41
2022-12-08T17:41:08.684Z,67.50
2022-12-08T17:46:21.019Z,67.49
2022-12-08T17:51:27.454Z,67.54
2022-12-08T17:56:36.294Z,67.60
2022-12-08T18:01:43.637Z,67.72
2022-12-08T18:06:52.009Z,67.88
2022-12-08T18:12:00.025Z,67.91
2022-12-08T18:17:08.809Z,67.99
2022-12-08T18:22:17.075Z,67.99
2022-12-08T18:27:25.215Z,68.09
2022-12-08T18:32:34.099Z,68.05
2022-12-08T18:37:43.612Z,68.05
2022-12-08T18:42:53.162Z,68.11
2022-12-08T18:48:01.450Z,68.14
2022-12-08T18:53:09.791Z,68.15
2022-12-08T18:58:18.243Z,68.12
2022-12-08T19:03:26.716Z,68.09
2022-12-08T19:08:35.651Z,68.07
2022-12-08T19:13:44.531Z,68.13
2022-12-08T19:18:53.380Z,68.13
2022-12-08T19:24:01.927Z,68.16
2022-12-08T19:29:10.683Z,68.17
2022-12-08T19:34:19.431Z,68.13
2022-12-08T19:39:46.039Z,68.06
2022-12-08T19:44:54.639Z,68.05
2022-12-08T19:50:20.964Z,67.97
2022-12-08T19:55:29.636Z,67.92
2022-12-08T20:00:40.986Z,67.88
2022-12-08T20:05:52.981Z,67.81
2022-12-08T20:11:01.759Z,67.77
2022-12-08T20:16:10.696Z,67.64
2022-12-08T20:21:19.772Z,67.54
2022-12-08T20:26:28.363Z,67.53
2022-12-08T20:31:36.823Z,67.48
2022-12-08T20:36:45.190Z,67.46
2022-12-08T20:41:54.924Z,67.44
2022-12-08T20:47:03.500Z,67.45
2022-12-08T20:52:12.357Z,67.48
2022-12-08T20:57:20.484Z,67.51
2022-12-08T21:02:28.771Z,67.62
2022-12-08T21:07:38.142Z,67.63
2022-12-08T21:12:46.663Z,67.73
2022-12-08T21:17:55.277Z,67.73
2022-12-08T21:23:04.317Z,67.75
2022-12-08T21:28:13.614Z,67.70
2022-12-08T21:33:22.435Z,67.54
2022-12-08T21:38:31.028Z,67.42
2022-12-08T21:43:39.763Z,67.30
2022-12-08T21:48:48.271Z,67.26
2022-12-08T21:53:56.690Z,67.17
2022-12-08T21:59:06.193Z,67.16
2022-12-08T22:04:18.464Z,67.13
2022-12-08T22:09:27.106Z,67.14
2022-12-08T22:14:35.325Z,67.20
2022-12-08T22:19:43.381Z,67.28
2022-12-08T22:24:51.588Z,67.40
2022-12-08T22:29:59.883Z,67.44
2022-12-08T22:35:08.716Z,67.40
2022-12-08T22:40:17.533Z,67.32
2022-12-08T22:45:25.938Z,67.20
2022-12-08T22:50:34.287Z,67.10
2022-12-08T22:55:47.001Z,67.03
2022-12-08T23:00:55.342Z,66.98
2022-12-08T23:06:03.926Z,66.98
2022-12-08T23:11:12.200Z,66.99
2022-12-08T23:16:20.472Z,66.96
2022-12-08T23:21:29.852Z,66.90
2022-12-08T23:26:38.132Z,66.82
2022-12-08T23:31:46.374Z,66.80
2022-12-08T23:36:54.432Z,66.90
2022-12-08T23:42:02.731Z,67.00
2022-12-08T23:47:11.040Z,67.09
2022-12-08T23:52:19.823Z,67.19
2022-12-08T23:57:28.182Z,67.25
